AirNav   Pilot Hours Calculator
 
 1278 users online  

44NH Lakes Region General Hospital Heliport
Laconia, New Hampshire, USA

GOING TO LACONIA?


FAA INFORMATION EFFECTIVE 30 JANUARY 2020

Location

FAA Identifier: 44NH
Lat/Long: 43-31-40.6000N 071-27-50.9000W
43-31.676667N 071-27.848333W
43.5279444,-71.4641389
(estimated)
Elevation: 597 ft. / 182 m (estimated)
From city: 1 mile E of LACONIA, NH
Time zone: UTC -5 (UTC -4 during Daylight Saving Time)
Zip code: 03246

Heliport Operations

Heliport use: Private use. Permission required prior to landing
Activation date: 12/2015
Control tower: no
ARTCC: BOSTON CENTER
FSS: BANGOR FLIGHT SERVICE STATION
Attendance: CONTINUOUS
Wind indicator: lighted
Segmented circle: no

Heliport Communications

WX AWOS-3PT at LCI (3 nm NE): 133.525 (603-524-5134)
WX ASOS at CON (20 nm S): 132.325 (603-224-6558)
WX AWOS-3 at 1P1 (20 nm NW): 118.45 (603-536-1698)

Nearby radio navigation aids

VOR radial/distance  VOR name  Freq  Var
CONr030/19.1CONCORD VOR/DME112.9015W
LEBr120/33.9LEBANON VOR/DME113.7015W
ENEr296/37.5KENNEBUNK VOR/DME117.1017W
PSMr330/38.3PEASE VOR/DME116.5016W
MHTr009/39.8MANCHESTER VOR/DME114.4015W

 
NDB name  Hdg/Dist  Freq  Var  ID
BLNAP115/3.232816WLC .-.. -.-.
HANOVER124/32.727615WLAH .-.. .- ....
ROLLINS320/33.326016WESG . ... --.

Heliport Services

Runway Information

Helipad H1

Dimensions: 97 x 62 ft. / 30 x 19 m
Surface: asphalt, in good condition
Traffic pattern: leftleft

Heliport Ownership and Management from official FAA records

Ownership: Privately-owned
Owner: LRG HEALTHCARE
80 HIGHLAND STREET
LACONIA, NH 03246
Phone 603-527-2890
Manager: MITCHELL B. JEAN
80 HIGHLAND STREET
LACONIA, NH 03246
Phone 603-527-2890

Additional Remarks

FOR CD CTC BOSTON APCH AT 603-594-5551.

Instrument Procedures

There are no published instrument procedures at 44NH.

Some nearby airports with instrument procedures:

KLCI - Laconia Municipal Airport (3 nm NE)
KCON - Concord Municipal Airport (20 nm S)
KDAW - Skyhaven Airport (28 nm SE)
2B3 - Parlin Field Airport (33 nm W)
KSFM - Sanford Seacoast Regional Airport (34 nm E)
 
Loc | Ops | Rwys | IFR | FBO | Links
Com | Nav | Svcs | Stats | Notes
Aerial photo
No photo
 
Airport distance calculator
Flying to Lakes Region General Hospital Heliport? Find the distance to fly.

From to 44NH

Sunrise and sunset
Times for 17-Feb-2020
 Local
(UTC-5)
 Zulu
(UTC)
Morning civil twilight06:1311:13
Sunrise06:4211:42
Sunset17:1722:17
Evening civil twilight17:4722:47

Current date and time
Zulu (UTC)  17-Feb-2020 15:30:14
Local (UTC-5)  17-Feb-2020 10:30:14
 
METAR
KLCI 
3nm NE 
171456Z AUTO 31009KT 10SM FEW042 01/M11 A3017 RMK AO2 SLP225 60000 T00061106 51021 FZRANO
K1P1 
20nm NW 
171515Z AUTO 28011G20KT 10SM CLR 00/M10 A3018 RMK AO2 T10021104
KCON 
20nm S 
171451Z AUTO 30009KT 10SM CLR 02/M09 A3018 RMK AO2 SLP224 T00171089 51020
TAF
KCON 
20nm S 
171132Z 1712/1812 VRB03KT P6SM SCT150 FM171400 30005KT P6SM SKC FM171800 31008G15KT P6SM FEW040 FM172300 VRB04KT P6SM SKC
NOTAMs
Click for the latest NOTAMs
NOTAMs are issued by the DoD/FAA and will open in a separate window not controlled by AirNav.

 

 
 

Would you like to see your business listed on this page?

 If your business provides an interesting product or service to pilots, flight crews, aircraft, or users of the Lakes Region General Hospital Heliport, you should consider listing it here.  To start the listing process, click on the button below
 
Add a business
 

Other Pages about Lakes Region General Hospital Heliport

Update a link
 
Copyright © AirNav, LLC. All rights reserved. Privacy Policy  Contact